createdAt,value
2018-03-02T00:00:59.673Z,0.00
2018-03-02T00:01:59.662Z,0.00
2018-03-02T00:02:59.651Z,0.00
2018-03-02T00:03:59.641Z,0.00
2018-03-02T00:04:59.630Z,0.00
2018-03-02T00:05:59.617Z,0.00
2018-03-02T00:06:59.607Z,0.00
2018-03-02T00:07:59.595Z,0.00
2018-03-02T00:08:59.585Z,0.00
2018-03-02T00:09:59.637Z,0.00
2018-03-02T00:10:59.562Z,0.00
2018-03-02T00:11:59.550Z,0.00
2018-03-02T00:12:59.540Z,0.00
2018-03-02T00:13:59.529Z,0.00
2018-03-02T00:14:59.517Z,0.00
2018-03-02T00:15:59.506Z,0.00
2018-03-02T00:16:59.497Z,0.00
2018-03-02T00:17:59.484Z,0.00
2018-03-02T00:18:59.471Z,0.00
2018-03-02T00:19:59.462Z,0.00
2018-03-02T00:20:59.451Z,0.00
2018-03-02T00:21:59.438Z,0.00
2018-03-02T00:22:59.427Z,0.00
2018-03-02T00:23:59.416Z,0.00
2018-03-02T00:24:59.405Z,0.00
2018-03-02T00:25:59.393Z,0.00
2018-03-02T00:26:59.382Z,0.00
2018-03-02T00:27:59.373Z,0.00
2018-03-02T00:28:59.359Z,0.00
2018-03-02T00:29:59.348Z,0.00
2018-03-02T00:30:59.338Z,0.00
2018-03-02T00:31:59.326Z,0.00
2018-03-02T00:32:59.315Z,0.00
2018-03-02T00:33:59.305Z,0.00
2018-03-02T00:34:59.295Z,0.00
2018-03-02T00:35:59.282Z,0.00
2018-03-02T00:36:59.270Z,0.00
2018-03-02T00:37:59.259Z,0.00
2018-03-02T00:38:59.246Z,0.00
2018-03-02T00:39:59.236Z,0.00
2018-03-02T00:40:59.225Z,0.00
2018-03-02T00:41:59.213Z,0.00
2018-03-02T00:42:59.201Z,0.00
2018-03-02T00:43:59.191Z,0.00
2018-03-02T00:44:59.180Z,0.00
2018-03-02T00:45:59.167Z,0.00
2018-03-02T00:46:59.157Z,0.00
2018-03-02T00:47:59.148Z,0.00
2018-03-02T00:48:59.134Z,0.00
2018-03-02T00:49:59.127Z,0.00
2018-03-02T00:50:59.110Z,0.00
2018-03-02T00:51:59.100Z,0.00
2018-03-02T00:52:59.088Z,0.00
2018-03-02T00:53:59.076Z,0.00
2018-03-02T00:54:59.065Z,0.00
2018-03-02T00:55:59.054Z,0.00
2018-03-02T00:56:59.043Z,0.00
2018-03-02T00:57:59.031Z,0.00
2018-03-02T00:58:59.019Z,0.00
2018-03-02T00:59:59.009Z,0.00
2018-03-02T01:00:58.998Z,0.00
2018-03-02T01:01:58.993Z,0.00
2018-03-02T01:02:58.974Z,0.00
2018-03-02T01:03:58.963Z,0.00
2018-03-02T01:04:58.952Z,0.00
2018-03-02T01:05:58.939Z,0.00
2018-03-02T01:06:58.928Z,0.00
2018-03-02T01:07:58.918Z,0.00
2018-03-02T01:08:58.904Z,0.00
2018-03-02T01:09:58.894Z,0.00
2018-03-02T01:10:58.883Z,0.00
2018-03-02T01:11:58.870Z,0.00
2018-03-02T01:12:58.860Z,0.00
2018-03-02T01:13:58.847Z,0.00
2018-03-02T01:14:58.835Z,0.00
2018-03-02T01:15:58.824Z,0.00
2018-03-02T01:16:58.812Z,0.00
2018-03-02T01:17:58.799Z,0.00
2018-03-02T01:18:58.787Z,0.00
2018-03-02T01:19:58.786Z,0.00
2018-03-02T01:20:58.768Z,0.00
2018-03-02T01:21:58.753Z,0.00
2018-03-02T01:22:58.742Z,0.00
2018-03-02T01:23:58.731Z,0.00
2018-03-02T01:24:58.720Z,0.00
2018-03-02T01:25:58.708Z,0.00
2018-03-02T01:26:58.696Z,0.00
2018-03-02T01:27:58.683Z,0.00
2018-03-02T01:28:58.674Z,0.00
2018-03-02T01:29:58.661Z,0.00
2018-03-02T01:30:58.649Z,0.00
2018-03-02T01:31:58.642Z,0.00
2018-03-02T01:32:58.627Z,0.00
2018-03-02T01:33:58.613Z,0.00
2018-03-02T01:34:58.602Z,0.00
2018-03-02T01:35:58.592Z,0.00
2018-03-02T01:36:58.579Z,0.00
2018-03-02T01:37:58.566Z,0.00
2018-03-02T01:38:58.555Z,0.00
2018-03-02T01:39:58.549Z,0.00
2018-03-02T01:40:58.534Z,0.00
2018-03-02T01:41:58.525Z,0.00
2018-03-02T01:42:58.509Z,0.00
2018-03-02T01:43:58.498Z,0.00
2018-03-02T01:44:58.488Z,0.00
2018-03-02T01:45:58.477Z,0.00
2018-03-02T01:46:58.462Z,0.00
2018-03-02T01:47:58.452Z,0.00
2018-03-02T01:48:58.442Z,0.00
2018-03-02T01:49:58.429Z,0.00
2018-03-02T01:50:58.421Z,0.00
2018-03-02T01:51:58.406Z,0.00
2018-03-02T01:52:58.396Z,0.00
2018-03-02T01:53:58.384Z,0.00
2018-03-02T01:54:58.374Z,0.00
2018-03-02T01:55:58.360Z,0.00
2018-03-02T01:56:58.350Z,0.00
2018-03-02T01:57:58.337Z,0.00
2018-03-02T01:58:58.324Z,0.00
2018-03-02T01:59:58.315Z,0.00
2018-03-02T02:00:58.303Z,0.00
2018-03-02T02:01:58.291Z,0.00
2018-03-02T02:02:58.279Z,0.00
2018-03-02T02:03:58.269Z,0.00
2018-03-02T02:04:58.257Z,0.00
2018-03-02T02:05:58.249Z,0.00
2018-03-02T02:06:58.234Z,0.00
2018-03-02T02:07:58.223Z,0.00
2018-03-02T02:08:58.215Z,0.00
2018-03-02T02:09:58.200Z,0.00
2018-03-02T02:10:58.188Z,0.00
2018-03-02T02:11:58.176Z,0.00
2018-03-02T02:12:58.166Z,0.00
2018-03-02T02:13:58.153Z,0.00
2018-03-02T02:14:58.141Z,0.00
2018-03-02T02:15:58.133Z,0.00
2018-03-02T02:16:58.119Z,0.00
2018-03-02T02:17:58.106Z,0.00
2018-03-02T02:18:58.095Z,0.00
2018-03-02T02:19:58.085Z,0.00
2018-03-02T02:20:58.071Z,0.00
2018-03-02T02:21:58.059Z,0.00
2018-03-02T02:22:58.048Z,0.00
2018-03-02T02:23:58.336Z,0.00
2018-03-02T02:24:58.027Z,0.00
2018-03-02T02:25:58.012Z,0.00
2018-03-02T02:26:58.000Z,0.00
2018-03-02T02:27:57.991Z,0.00
2018-03-02T02:28:57.977Z,0.00
2018-03-02T02:29:57.965Z,0.00
2018-03-02T02:30:57.953Z,0.00
2018-03-02T02:31:57.942Z,0.00
2018-03-02T02:32:57.935Z,0.00
2018-03-02T02:33:57.918Z,0.00
2018-03-02T02:34:57.908Z,0.00
2018-03-02T02:35:57.896Z,0.00
2018-03-02T02:36:57.883Z,0.00
2018-03-02T02:37:57.875Z,0.00
2018-03-02T02:38:57.860Z,0.00
2018-03-02T02:39:57.850Z,0.00
2018-03-02T02:40:57.838Z,0.00
2018-03-02T02:41:57.824Z,0.00
2018-03-02T02:42:57.813Z,0.00
2018-03-02T02:43:57.801Z,0.00
2018-03-02T02:44:57.789Z,0.00
2018-03-02T02:45:57.777Z,0.00
2018-03-02T02:46:57.766Z,0.00
2018-03-02T02:47:57.755Z,0.00
2018-03-02T02:48:57.743Z,0.00
2018-03-02T02:49:57.730Z,0.00
2018-03-02T02:50:57.719Z,0.00
2018-03-02T02:51:57.706Z,0.00
2018-03-02T02:52:57.696Z,0.00
2018-03-02T02:53:57.683Z,0.00
2018-03-02T02:54:57.673Z,0.00
2018-03-02T02:55:57.661Z,0.00
2018-03-02T02:56:57.650Z,0.00
2018-03-02T02:57:57.637Z,0.00
2018-03-02T02:58:57.626Z,0.00
2018-03-02T02:59:57.629Z,0.00
2018-03-02T03:00:57.602Z,0.00
2018-03-02T03:01:57.590Z,0.00
2018-03-02T03:02:57.578Z,0.00
2018-03-02T03:03:57.568Z,0.00
2018-03-02T03:04:57.559Z,0.00
2018-03-02T03:05:57.543Z,0.00
2018-03-02T03:06:57.532Z,0.00
2018-03-02T03:07:57.519Z,0.00
2018-03-02T03:08:57.508Z,0.00
2018-03-02T03:09:57.495Z,0.00
2018-03-02T03:10:57.484Z,0.00
2018-03-02T03:11:57.473Z,0.00
2018-03-02T03:12:57.460Z,0.00
2018-03-02T03:13:57.452Z,0.00
2018-03-02T03:14:57.448Z,0.00
2018-03-02T03:15:57.432Z,0.00
2018-03-02T03:16:57.418Z,0.00
2018-03-02T03:17:57.400Z,0.00
2018-03-02T03:18:57.390Z,0.00
2018-03-02T03:19:57.377Z,0.00
2018-03-02T03:20:57.367Z,0.00
2018-03-02T03:21:57.353Z,0.00
2018-03-02T03:22:57.342Z,0.00
2018-03-02T03:23:57.330Z,0.00
2018-03-02T03:24:57.318Z,0.00
2018-03-02T03:25:57.306Z,0.00
2018-03-02T03:26:57.294Z,0.00
2018-03-02T03:27:57.282Z,0.00
2018-03-02T03:28:57.272Z,0.00
2018-03-02T03:29:57.258Z,0.00
2018-03-02T03:30:57.248Z,0.00
2018-03-02T03:31:57.235Z,0.00
2018-03-02T03:32:57.226Z,0.00
2018-03-02T03:33:57.212Z,0.00
2018-03-02T03:34:57.205Z,0.00
2018-03-02T03:35:57.189Z,0.00
2018-03-02T03:36:57.177Z,0.00
2018-03-02T03:37:57.165Z,0.00
2018-03-02T03:38:57.154Z,0.00
2018-03-02T03:39:57.142Z,0.00
2018-03-02T03:40:57.138Z,0.00
2018-03-02T03:41:57.120Z,0.00
2018-03-02T03:42:57.106Z,0.00
2018-03-02T03:43:57.099Z,0.00
2018-03-02T03:44:57.084Z,0.00
2018-03-02T03:45:57.071Z,0.00
2018-03-02T03:46:57.059Z,0.00
2018-03-02T03:47:57.048Z,0.00
2018-03-02T03:48:57.036Z,0.00
2018-03-02T03:49:57.024Z,0.00
2018-03-02T03:50:57.013Z,0.00
2018-03-02T03:51:57.002Z,0.00
2018-03-02T03:52:56.990Z,0.00
2018-03-02T03:53:56.978Z,0.00
2018-03-02T03:54:56.966Z,0.00
2018-03-02T03:55:56.955Z,0.00
2018-03-02T03:56:56.944Z,0.00
2018-03-02T03:57:56.931Z,0.00
2018-03-02T03:58:56.918Z,0.00
2018-03-02T03:59:56.909Z,0.00
2018-03-02T04:00:56.897Z,0.00
2018-03-02T04:01:56.883Z,0.00
2018-03-02T04:02:56.875Z,0.00
2018-03-02T04:03:56.863Z,0.00
2018-03-02T04:04:56.851Z,0.00
2018-03-02T04:05:56.838Z,0.00
2018-03-02T04:06:56.828Z,0.00
2018-03-02T04:07:56.817Z,0.00
2018-03-02T04:08:56.804Z,0.00
2018-03-02T04:09:56.792Z,0.00
2018-03-02T04:10:56.780Z,0.00
2018-03-02T04:11:56.768Z,0.00
2018-03-02T04:12:56.762Z,0.00
2018-03-02T04:13:56.744Z,0.00
2018-03-02T04:14:56.733Z,0.00
2018-03-02T04:15:56.723Z,0.00
2018-03-02T04:16:56.713Z,0.00
2018-03-02T04:17:56.699Z,0.00
2018-03-02T04:18:56.688Z,0.00
2018-03-02T04:19:56.674Z,0.00
2018-03-02T04:20:56.664Z,0.00
2018-03-02T04:21:56.653Z,0.00
2018-03-02T04:22:56.641Z,0.00
2018-03-02T04:23:56.630Z,0.00
2018-03-02T04:24:56.617Z,0.00
2018-03-02T04:25:56.606Z,0.00
2018-03-02T04:26:56.594Z,0.00
2018-03-02T04:27:56.583Z,0.00
2018-03-02T04:28:56.572Z,0.00
2018-03-02T04:29:56.558Z,0.00
2018-03-02T04:30:56.548Z,0.00
2018-03-02T04:31:56.537Z,0.00
2018-03-02T04:32:56.530Z,0.00
2018-03-02T04:33:56.513Z,0.00
2018-03-02T04:34:56.503Z,0.00
2018-03-02T04:35:56.489Z,0.00
2018-03-02T04:36:56.479Z,0.00
2018-03-02T04:37:56.469Z,0.00
2018-03-02T04:38:56.455Z,0.00
2018-03-02T04:39:56.449Z,0.00
2018-03-02T04:40:56.431Z,0.00
2018-03-02T04:41:56.420Z,0.00
2018-03-02T04:42:56.408Z,0.00
2018-03-02T04:43:56.402Z,0.00
2018-03-02T04:44:56.384Z,0.00
2018-03-02T04:45:56.373Z,0.00
2018-03-02T04:46:56.362Z,0.00
2018-03-02T04:47:56.349Z,0.00
2018-03-02T04:48:56.337Z,0.00
2018-03-02T04:49:56.326Z,0.00
2018-03-02T04:50:56.318Z,0.00
2018-03-02T04:51:56.303Z,0.00
2018-03-02T04:52:56.291Z,0.00
2018-03-02T04:53:56.279Z,0.00
2018-03-02T04:54:56.267Z,0.00
2018-03-02T04:55:56.256Z,0.00
2018-03-02T04:56:56.244Z,0.00
2018-03-02T04:57:56.230Z,0.00
2018-03-02T04:58:56.219Z,0.00
2018-03-02T04:59:56.207Z,0.00
2018-03-02T05:00:56.197Z,0.00
2018-03-02T05:01:56.184Z,0.00
2018-03-02T05:02:56.172Z,0.00
2018-03-02T05:03:56.161Z,0.00
2018-03-02T05:04:56.148Z,0.00
2018-03-02T05:05:56.136Z,0.00
2018-03-02T05:06:56.124Z,0.00
2018-03-02T05:07:56.114Z,0.00
2018-03-02T05:08:56.132Z,0.00
2018-03-02T05:09:56.088Z,0.00
2018-03-02T05:10:56.077Z,0.00
2018-03-02T05:11:56.066Z,0.00
2018-03-02T05:12:56.054Z,0.00
2018-03-02T05:13:56.043Z,0.00
2018-03-02T05:14:56.030Z,0.00
2018-03-02T05:15:56.018Z,0.00
2018-03-02T05:16:56.006Z,0.00
2018-03-02T05:17:55.994Z,0.00
2018-03-02T05:18:55.982Z,0.00
2018-03-02T05:19:55.971Z,0.00
2018-03-02T05:20:55.958Z,0.00
2018-03-02T05:21:55.945Z,0.00
2018-03-02T05:22:55.933Z,4.00
2018-03-02T05:23:55.922Z,4.00
2018-03-02T05:24:55.909Z,4.00
2018-03-02T05:25:55.899Z,0.00
2018-03-02T05:26:55.887Z,4.00
2018-03-02T05:27:55.875Z,4.00
2018-03-02T05:28:55.864Z,4.00
2018-03-02T05:29:55.851Z,4.00
2018-03-02T05:30:55.839Z,8.00
2018-03-02T05:31:55.832Z,4.00
2018-03-02T05:32:55.816Z,4.00
2018-03-02T05:33:55.806Z,8.00
2018-03-02T05:34:55.792Z,12.00
2018-03-02T05:35:55.780Z,12.00
2018-03-02T05:36:55.769Z,12.00
2018-03-02T05:37:55.760Z,16.00
2018-03-02T05:38:55.745Z,20.00
2018-03-02T05:39:55.733Z,20.00
2018-03-02T05:40:55.725Z,24.00
2018-03-02T05:41:55.709Z,28.00
2018-03-02T05:42:55.696Z,32.00
2018-03-02T05:43:55.686Z,40.00
2018-03-02T05:44:55.674Z,44.00
2018-03-02T05:45:55.688Z,52.00
2018-03-02T05:46:55.651Z,60.00
2018-03-02T05:47:55.639Z,64.00
2018-03-02T05:48:55.627Z,72.00
2018-03-02T05:49:55.614Z,80.00
2018-03-02T05:50:55.603Z,88.00
2018-03-02T05:51:55.594Z,100.00
2018-03-02T05:52:55.580Z,112.00
2018-03-02T05:53:55.567Z,124.00
2018-03-02T05:54:55.555Z,136.00
2018-03-02T05:55:55.543Z,152.00
2018-03-02T05:56:55.532Z,168.00
2018-03-02T05:57:55.519Z,180.00
2018-03-02T05:58:55.508Z,200.00
2018-03-02T05:59:55.495Z,220.00
2018-03-02T06:00:55.484Z,236.00
2018-03-02T06:01:55.472Z,244.00
2018-03-02T06:02:55.459Z,268.00
2018-03-02T06:03:55.447Z,288.00
2018-03-02T06:04:55.435Z,312.00
2018-03-02T06:05:55.423Z,332.00
2018-03-02T06:06:55.409Z,364.00
2018-03-02T06:07:55.408Z,404.00
2018-03-02T06:08:55.388Z,448.00
2018-03-02T06:09:55.373Z,500.00
2018-03-02T06:10:55.394Z,552.00
2018-03-02T06:11:55.350Z,600.00
2018-03-02T06:12:55.339Z,636.00
2018-03-02T06:13:55.325Z,676.00
2018-03-02T06:14:55.321Z,720.00
2018-03-02T06:15:55.302Z,744.00
2018-03-02T06:16:55.293Z,752.00
2018-03-02T06:17:55.277Z,788.00
2018-03-02T06:18:55.266Z,832.00
2018-03-02T06:19:55.255Z,876.00
2018-03-02T06:20:55.244Z,936.00
2018-03-02T06:21:55.230Z,1024.00
2018-03-02T06:22:55.218Z,1084.00
2018-03-02T06:23:55.206Z,1176.00
2018-03-02T06:24:55.195Z,1316.00
2018-03-02T06:25:55.183Z,1392.00
2018-03-02T06:26:55.169Z,1484.00
2018-03-02T06:27:55.161Z,1540.00
2018-03-02T06:28:55.147Z,1600.00
2018-03-02T06:29:55.133Z,1628.00
2018-03-02T06:30:55.123Z,1688.00
2018-03-02T06:31:55.111Z,1796.00
2018-03-02T06:32:55.099Z,1740.00
2018-03-02T06:33:55.087Z,1676.00
2018-03-02T06:34:55.083Z,1700.00
2018-03-02T06:35:55.064Z,1700.00
2018-03-02T06:36:55.052Z,1656.00
2018-03-02T06:37:55.040Z,1732.00
2018-03-02T06:38:55.029Z,1780.00
2018-03-02T06:39:55.015Z,1804.00
2018-03-02T06:40:55.005Z,1924.00
2018-03-02T06:41:54.992Z,2020.00
2018-03-02T06:42:54.981Z,2100.00
2018-03-02T06:43:54.970Z,2292.00
2018-03-02T06:44:54.958Z,2460.00
2018-03-02T06:45:54.945Z,2420.00
2018-03-02T06:46:54.934Z,2380.00
2018-03-02T06:47:54.926Z,2568.00
2018-03-02T06:48:54.911Z,2436.00
2018-03-02T06:49:54.900Z,2400.00
2018-03-02T06:50:54.890Z,2400.00
2018-03-02T06:51:54.875Z,2344.00
2018-03-02T06:52:54.864Z,2372.00
2018-03-02T06:53:54.850Z,2372.00
2018-03-02T06:54:54.844Z,2376.00
2018-03-02T06:55:54.828Z,2496.00
2018-03-02T06:56:54.817Z,2580.00
2018-03-02T06:57:54.803Z,2568.00
2018-03-02T06:58:54.793Z,2608.00
2018-03-02T06:59:54.782Z,2620.00
2018-03-02T07:00:54.772Z,2536.00
2018-03-02T07:01:54.758Z,2460.00
2018-03-02T07:02:54.748Z,2372.00
2018-03-02T07:03:54.737Z,2424.00
2018-03-02T07:04:54.724Z,2472.00
2018-03-02T07:05:54.711Z,2404.00
2018-03-02T07:06:54.699Z,2684.00
2018-03-02T07:07:54.689Z,2776.00
2018-03-02T07:08:54.678Z,2812.00
2018-03-02T07:09:54.666Z,2768.00
2018-03-02T07:10:54.656Z,2800.00
2018-03-02T07:11:54.642Z,2840.00
2018-03-02T07:12:54.631Z,2924.00
2018-03-02T07:13:54.619Z,2920.00
2018-03-02T07:14:54.608Z,3036.00
2018-03-02T07:15:54.596Z,2964.00
2018-03-02T07:16:54.586Z,2920.00
2018-03-02T07:17:54.572Z,3172.00
2018-03-02T07:18:54.561Z,3400.00
2018-03-02T07:19:54.550Z,3496.00
2018-03-02T07:20:54.539Z,3336.00
2018-03-02T07:21:54.527Z,3308.00
2018-03-02T07:22:54.575Z,3204.00
2018-03-02T07:23:54.504Z,3248.00
2018-03-02T07:24:54.493Z,3476.00
2018-03-02T07:25:54.481Z,3452.00
2018-03-02T07:26:54.470Z,3260.00
2018-03-02T07:27:54.458Z,3380.00
2018-03-02T07:28:54.447Z,3376.00
2018-03-02T07:29:54.436Z,3612.00
2018-03-02T07:30:54.423Z,3624.00
2018-03-02T07:31:54.412Z,3792.00
2018-03-02T07:32:54.401Z,4052.00
2018-03-02T07:33:54.389Z,3916.00
2018-03-02T07:34:54.378Z,3760.00
2018-03-02T07:35:54.366Z,3724.00
2018-03-02T07:36:54.356Z,3676.00
2018-03-02T07:37:54.343Z,3892.00
2018-03-02T07:38:54.332Z,4592.00
2018-03-02T07:39:54.321Z,4648.00
2018-03-02T07:40:54.310Z,4432.00
2018-03-02T07:41:54.298Z,4636.00
2018-03-02T07:42:54.287Z,4804.00
2018-03-02T07:43:54.276Z,4792.00
2018-03-02T07:44:54.263Z,4908.00
2018-03-02T07:45:54.253Z,4928.00
2018-03-02T07:46:54.242Z,5024.00
2018-03-02T07:47:54.229Z,5052.00
2018-03-02T07:48:54.219Z,5264.00
2018-03-02T07:49:54.207Z,5608.00
2018-03-02T07:50:54.198Z,5852.00
2018-03-02T07:51:54.184Z,5764.00
2018-03-02T07:52:54.175Z,5488.00
2018-03-02T07:53:54.162Z,5616.00
2018-03-02T07:54:54.151Z,5972.00
2018-03-02T07:55:54.141Z,6220.00
2018-03-02T07:56:54.132Z,6500.00
2018-03-02T07:57:54.117Z,6640.00
2018-03-02T07:58:54.110Z,7000.00
2018-03-02T07:59:54.097Z,7180.00
2018-03-02T08:00:54.086Z,7072.00
2018-03-02T08:01:54.073Z,6944.00
2018-03-02T08:02:54.063Z,7292.00
2018-03-02T08:03:54.053Z,7392.00
2018-03-02T08:04:54.041Z,7700.00
2018-03-02T08:05:54.033Z,8928.00
2018-03-02T08:06:54.020Z,9876.00
2018-03-02T08:07:54.009Z,10552.00
2018-03-02T08:08:53.999Z,11248.00
2018-03-02T08:09:53.988Z,12172.00
2018-03-02T08:10:53.977Z,11740.00
2018-03-02T08:11:53.967Z,10772.00
2018-03-02T08:12:53.955Z,12708.00
2018-03-02T08:13:53.946Z,15436.00
2018-03-02T08:14:53.937Z,15180.00
2018-03-02T08:15:53.927Z,16256.00
2018-03-02T08:16:53.917Z,15992.00
2018-03-02T08:17:53.905Z,16640.00
2018-03-02T08:18:53.895Z,14940.00
2018-03-02T08:19:53.887Z,14352.00
2018-03-02T08:20:53.877Z,15156.00
2018-03-02T08:21:53.868Z,16104.00
2018-03-02T08:22:53.861Z,18432.00
2018-03-02T08:23:53.853Z,21312.00
2018-03-02T08:24:53.840Z,19520.00
2018-03-02T08:25:53.830Z,18336.00
2018-03-02T08:26:53.820Z,17248.00
2018-03-02T08:27:53.820Z,16896.00
2018-03-02T08:28:53.803Z,18080.00
2018-03-02T08:29:53.793Z,18144.00
2018-03-02T08:30:53.786Z,17728.00
2018-03-02T08:31:53.778Z,16960.00
2018-03-02T08:32:53.769Z,19072.00
2018-03-02T08:33:53.760Z,20896.00
2018-03-02T08:34:53.752Z,21664.00
2018-03-02T08:35:53.744Z,26848.00
2018-03-02T08:36:53.736Z,28256.00
2018-03-02T08:37:53.726Z,33312.00
2018-03-02T08:38:53.719Z,35584.00
2018-03-02T08:39:53.713Z,28704.00
2018-03-02T08:40:53.706Z,22976.00
2018-03-02T08:41:53.697Z,22784.00
2018-03-02T08:42:53.709Z,23104.00
2018-03-02T08:43:53.685Z,23072.00
2018-03-02T08:44:53.678Z,23680.00
2018-03-02T08:45:53.669Z,28832.00
2018-03-02T08:46:53.662Z,32512.00
2018-03-02T08:47:53.657Z,33664.00
2018-03-02T08:48:53.651Z,36512.00
2018-03-02T08:49:53.667Z,39296.00
2018-03-02T08:50:53.638Z,40576.00
2018-03-02T08:51:53.633Z,37120.00
2018-03-02T08:52:53.628Z,34688.00
2018-03-02T08:53:53.625Z,33408.00
2018-03-02T08:54:53.618Z,36896.00
2018-03-02T08:55:53.613Z,36192.00
2018-03-02T08:56:53.611Z,31392.00
2018-03-02T08:57:53.602Z,33184.00
2018-03-02T08:58:53.599Z,34816.00
2018-03-02T08:59:53.595Z,34432.00
2018-03-02T09:00:53.591Z,35488.00
2018-03-02T09:01:53.586Z,36992.00
2018-03-02T09:02:53.585Z,30880.00
2018-03-02T09:03:53.581Z,35008.00
2018-03-02T09:04:53.577Z,38048.00
2018-03-02T09:05:53.574Z,37568.00
2018-03-02T09:06:53.572Z,32480.00
2018-03-02T09:07:53.567Z,32288.00
2018-03-02T09:08:53.566Z,34720.00
2018-03-02T09:09:53.561Z,30944.00
2018-03-02T09:10:53.559Z,27168.00
2018-03-02T09:11:53.560Z,29408.00
2018-03-02T09:12:53.556Z,27776.00
2018-03-02T09:13:53.553Z,28064.00
2018-03-02T09:14:53.549Z,25472.00
2018-03-02T09:15:53.548Z,29248.00
2018-03-02T09:16:53.543Z,23040.00
2018-03-02T09:17:53.540Z,21280.00
2018-03-02T09:18:53.544Z,22816.00
2018-03-02T09:19:53.534Z,31392.00
2018-03-02T09:20:53.532Z,35488.00
2018-03-02T09:21:53.527Z,31936.00
2018-03-02T09:22:53.524Z,24544.00
2018-03-02T09:23:53.927Z,19680.00
2018-03-02T09:24:53.520Z,19936.00
2018-03-02T09:25:53.517Z,22080.00
2018-03-02T09:26:53.512Z,29696.00
2018-03-02T09:27:53.512Z,33856.00
2018-03-02T09:28:53.505Z,28096.00
2018-03-02T09:29:53.500Z,24512.00
2018-03-02T09:30:53.498Z,30752.00
2018-03-02T09:31:53.496Z,39296.00
2018-03-02T09:32:53.490Z,38368.00
2018-03-02T09:33:53.485Z,37856.00
2018-03-02T09:34:53.483Z,37472.00
2018-03-02T09:35:53.480Z,36832.00
2018-03-02T09:36:53.477Z,34592.00
2018-03-02T09:37:53.474Z,30496.00
2018-03-02T09:38:53.474Z,33024.00
2018-03-02T09:39:53.469Z,33312.00
2018-03-02T09:40:53.628Z,33440.00
2018-03-02T09:41:53.464Z,34880.00
2018-03-02T09:42:53.461Z,36192.00
2018-03-02T09:43:53.461Z,36320.00
2018-03-02T09:44:53.458Z,36288.00
2018-03-02T09:45:53.456Z,34144.00
2018-03-02T09:46:53.454Z,32384.00
2018-03-02T09:47:53.454Z,29152.00
2018-03-02T09:48:53.452Z,30016.00
2018-03-02T09:49:53.450Z,36128.00
2018-03-02T09:50:53.448Z,35232.00
2018-03-02T09:51:53.447Z,32512.00
2018-03-02T09:52:53.447Z,27936.00
2018-03-02T09:53:53.444Z,31104.00
2018-03-02T09:54:53.444Z,33760.00
2018-03-02T09:55:53.444Z,34752.00
2018-03-02T09:56:53.442Z,30944.00
2018-03-02T09:57:53.440Z,30688.00
2018-03-02T09:58:53.439Z,29696.00
2018-03-02T09:59:53.439Z,29472.00
2018-03-02T10:00:53.437Z,27008.00
2018-03-02T10:01:53.436Z,23328.00
2018-03-02T10:02:53.433Z,21984.00
2018-03-02T10:03:53.436Z,21504.00
2018-03-02T10:04:53.430Z,21312.00
2018-03-02T10:05:53.428Z,21088.00
2018-03-02T10:06:53.427Z,21920.00
2018-03-02T10:07:53.425Z,21824.00
2018-03-02T10:08:53.423Z,21312.00
2018-03-02T10:09:53.420Z,21728.00
2018-03-02T10:10:53.422Z,23200.00
2018-03-02T10:11:53.416Z,24192.00
2018-03-02T10:12:53.413Z,24960.00
2018-03-02T10:13:53.412Z,25024.00
2018-03-02T10:14:53.410Z,26400.00
2018-03-02T10:15:53.408Z,26784.00
2018-03-02T10:16:53.407Z,29184.00
2018-03-02T10:17:53.404Z,31232.00
2018-03-02T10:18:53.403Z,31744.00
2018-03-02T10:19:53.405Z,33280.00
2018-03-02T10:20:53.401Z,34112.00
2018-03-02T10:21:53.399Z,33920.00
2018-03-02T10:22:53.400Z,35264.00
2018-03-02T10:23:53.395Z,37568.00
2018-03-02T10:24:53.396Z,37376.00
2018-03-02T10:25:53.395Z,37760.00
2018-03-02T10:26:53.395Z,38496.00
2018-03-02T10:27:53.394Z,37952.00
2018-03-02T10:28:53.398Z,39232.00
2018-03-02T10:29:53.393Z,38912.00
2018-03-02T10:30:53.394Z,37920.00
2018-03-02T10:31:53.393Z,38048.00
2018-03-02T10:32:53.392Z,36544.00
2018-03-02T10:33:53.392Z,36224.00
2018-03-02T10:34:53.394Z,36448.00
2018-03-02T10:35:53.393Z,36448.00
2018-03-02T10:36:53.395Z,36224.00
2018-03-02T10:37:53.394Z,35968.00
2018-03-02T10:38:53.395Z,35712.00
2018-03-02T10:39:53.396Z,36288.00
2018-03-02T10:40:53.397Z,33632.00
2018-03-02T10:41:53.398Z,34368.00
2018-03-02T10:42:53.399Z,34848.00
2018-03-02T10:43:53.400Z,35456.00
2018-03-02T10:44:53.400Z,34720.00
2018-03-02T10:45:53.402Z,34432.00
2018-03-02T10:46:53.403Z,33440.00
2018-03-02T10:47:53.405Z,33920.00
2018-03-02T10:48:53.407Z,33152.00
2018-03-02T10:49:53.406Z,33024.00
2018-03-02T10:50:53.407Z,31072.00
2018-03-02T10:51:53.409Z,31104.00
2018-03-02T10:52:53.412Z,32608.00
2018-03-02T10:53:53.411Z,32416.00
2018-03-02T10:54:53.412Z,32704.00
2018-03-02T10:55:53.414Z,32032.00
2018-03-02T10:56:53.414Z,31968.00
2018-03-02T10:57:53.416Z,31136.00
2018-03-02T10:58:53.418Z,30496.00
2018-03-02T10:59:53.419Z,31456.00
2018-03-02T11:00:53.421Z,31424.00
2018-03-02T11:01:53.485Z,31104.00
2018-03-02T11:02:53.423Z,30560.00
2018-03-02T11:03:53.426Z,29856.00
2018-03-02T11:04:53.427Z,28448.00
2018-03-02T11:05:53.428Z,28000.00
2018-03-02T11:06:53.430Z,27712.00
2018-03-02T11:07:53.431Z,26528.00
2018-03-02T11:08:53.434Z,25728.00
2018-03-02T11:09:53.432Z,25792.00
2018-03-02T11:10:53.436Z,26272.00
2018-03-02T11:11:53.437Z,25760.00
2018-03-02T11:12:53.439Z,25856.00
2018-03-02T11:13:53.444Z,27104.00
2018-03-02T11:14:53.440Z,25920.00
2018-03-02T11:15:53.442Z,25824.00
2018-03-02T11:16:53.442Z,26272.00
2018-03-02T11:17:53.444Z,25888.00
2018-03-02T11:18:53.445Z,25248.00
2018-03-02T11:19:53.446Z,23648.00
2018-03-02T11:20:53.483Z,22688.00
2018-03-02T11:21:53.447Z,22976.00
2018-03-02T11:22:53.449Z,22720.00
2018-03-02T11:23:53.450Z,23904.00
2018-03-02T11:24:53.450Z,23424.00
2018-03-02T11:25:53.451Z,21920.00
2018-03-02T11:26:53.450Z,21568.00
2018-03-02T11:27:53.451Z,26048.00
2018-03-02T11:28:53.455Z,29280.00
2018-03-02T11:29:53.451Z,28992.00
2018-03-02T11:30:53.452Z,28448.00
2018-03-02T11:31:53.452Z,28096.00
2018-03-02T11:32:53.459Z,24416.00
2018-03-02T11:33:53.452Z,21728.00
2018-03-02T11:34:53.452Z,25216.00
2018-03-02T11:35:53.454Z,23104.00
2018-03-02T11:36:53.453Z,25152.00
2018-03-02T11:37:53.453Z,30720.00
2018-03-02T11:38:53.452Z,30016.00
2018-03-02T11:39:53.451Z,29920.00
2018-03-02T11:40:53.453Z,31168.00
2018-03-02T11:41:53.452Z,28704.00
2018-03-02T11:42:53.458Z,26176.00
2018-03-02T11:43:53.452Z,25824.00
2018-03-02T11:44:53.453Z,25856.00
2018-03-02T11:45:53.450Z,27488.00
2018-03-02T11:46:53.457Z,27968.00
2018-03-02T11:47:53.452Z,23680.00
2018-03-02T11:48:53.453Z,20576.00
2018-03-02T11:49:53.770Z,21408.00
2018-03-02T11:50:53.453Z,20288.00
2018-03-02T11:51:53.452Z,20288.00
2018-03-02T11:52:53.454Z,20448.00
2018-03-02T11:53:53.461Z,19552.00
2018-03-02T11:54:53.453Z,22464.00
2018-03-02T11:55:53.452Z,22880.00
2018-03-02T11:56:53.453Z,20608.00
2018-03-02T11:57:53.454Z,21024.00
2018-03-02T11:58:53.454Z,22848.00
2018-03-02T11:59:53.451Z,21920.00
2018-03-02T12:00:53.456Z,21216.00
2018-03-02T12:01:53.450Z,22528.00
2018-03-02T12:02:53.452Z,24864.00
2018-03-02T12:03:53.447Z,22720.00
2018-03-02T12:04:53.447Z,22400.00
2018-03-02T12:05:53.444Z,24256.00
2018-03-02T12:06:53.445Z,23680.00
2018-03-02T12:07:53.444Z,21952.00
2018-03-02T12:08:53.443Z,20896.00
2018-03-02T12:09:53.443Z,21888.00
2018-03-02T12:10:53.441Z,21696.00
2018-03-02T12:11:53.439Z,23264.00
2018-03-02T12:12:53.438Z,23168.00
2018-03-02T12:13:53.441Z,19904.00
2018-03-02T12:14:53.708Z,20352.00
2018-03-02T12:15:53.435Z,20896.00
2018-03-02T12:16:53.448Z,20960.00
2018-03-02T12:17:53.432Z,19296.00
2018-03-02T12:18:53.432Z,17152.00
2018-03-02T12:19:53.431Z,13512.00
2018-03-02T12:20:53.430Z,11796.00
2018-03-02T12:21:53.427Z,10724.00
2018-03-02T12:22:53.427Z,10988.00
2018-03-02T12:23:53.424Z,13368.00
2018-03-02T12:24:53.424Z,15908.00
2018-03-02T12:25:53.421Z,20608.00
2018-03-02T12:26:53.419Z,21440.00
2018-03-02T12:27:53.418Z,20256.00
2018-03-02T12:28:53.414Z,20288.00
2018-03-02T12:29:53.414Z,18784.00
2018-03-02T12:30:53.411Z,18048.00